RYR1901 EVRA-LKPR
Flight info
| Callsign | RYR1901 |
|---|---|
| Flight time | N/A |
| Altitude | 38000 |
| Route | VALED DCT ADAXA DCT NINTA DCT DIPEB DCT ANFEV DCT PENOR/N0448F390 DCT BEZMI/N0446F380 DCT LATAG DCT RASAN DCT ASTEL DCT GOLOP |
| Aircraft | A320/M-SDE3FGHIRWY/LB1 |
Departure
| Time | 2026-04-27 10:00 |
|---|---|
| Airport | Riga International Airport (EVRA) |
Arrival
| Time | N/A |
|---|---|
| Airport | Václav Havel Airport Prague (LKPR) |
| Time | Latitude | Longitude | Altitude | Speed | Heading |
|---|---|---|---|---|---|
| 2026-04-27 09:33 | 56.92284 | 23.97825 | 35 ft | 0 kts | 185° |
| 2026-04-27 09:51 | 56.92288 | 23.97826 | 35 ft | 2 kts | 183° |
| 2026-04-27 09:51 | 56.92305 | 23.97828 | 35 ft | 2 kts | 185° |
| 2026-04-27 09:51 | 56.92321 | 23.97831 | 33 ft | 2 kts | 189° |
| 2026-04-27 09:52 | 56.92338 | 23.97838 | 31 ft | 2 kts | 244° |
| 2026-04-27 09:52 | 56.92340 | 23.97856 | 32 ft | 0 kts | 274° |
| 2026-04-27 09:55 | 56.92343 | 23.97807 | 35 ft | 7 kts | 276° |
| 2026-04-27 09:55 | 56.92348 | 23.97694 | 35 ft | 11 kts | 274° |
| 2026-04-27 09:55 | 56.92267 | 23.97484 | 33 ft | 14 kts | 184° |
| 2026-04-27 09:56 | 56.92158 | 23.97468 | 35 ft | 17 kts | 185° |
| 2026-04-27 09:56 | 56.92030 | 23.97445 | 35 ft | 19 kts | 185° |
| 2026-04-27 09:56 | 56.91892 | 23.97431 | 35 ft | 21 kts | 183° |
| 2026-04-27 09:56 | 56.91737 | 23.97408 | 35 ft | 24 kts | 185° |
| 2026-04-27 09:57 | 56.91624 | 23.97388 | 35 ft | 26 kts | 186° |
| 2026-04-27 09:57 | 56.91436 | 23.97354 | 35 ft | 28 kts | 185° |
| 2026-04-27 09:57 | 56.91272 | 23.97329 | 35 ft | 22 kts | 185° |
| 2026-04-27 09:57 | 56.91107 | 23.97302 | 35 ft | 25 kts | 184° |
| 2026-04-27 09:58 | 56.90973 | 23.97247 | 34 ft | 17 kts | 213° |
| 2026-04-27 09:58 | 56.90857 | 23.97163 | 35 ft | 19 kts | 188° |
| 2026-04-27 09:58 | 56.90689 | 23.97134 | 35 ft | 16 kts | 203° |
| 2026-04-27 09:58 | 56.90647 | 23.97046 | 35 ft | 9 kts | 260° |
| 2026-04-27 09:59 | 56.90646 | 23.97026 | 35 ft | 0 kts | 264° |
| 2026-04-27 09:59 | 56.90645 | 23.97014 | 35 ft | 5 kts | 265° |
| 2026-04-27 09:59 | 56.90649 | 23.96906 | 36 ft | 10 kts | 288° |
| 2026-04-27 09:59 | 56.90709 | 23.96846 | 36 ft | 12 kts | 2° |
| 2026-04-27 10:00 | 56.90917 | 23.96891 | 35 ft | 63 kts | 6° |
| 2026-04-27 10:00 | 56.91563 | 23.96983 | 38 ft | 120 kts | 5° |
| 2026-04-27 10:00 | 56.92537 | 23.97114 | 211 ft | 152 kts | 2° |
| 2026-04-27 10:00 | 56.93641 | 23.97313 | 727 ft | 167 kts | 2° |
| 2026-04-27 10:01 | 56.94813 | 23.97514 | 1517 ft | 168 kts | 1° |
| 2026-04-27 10:01 | 56.95984 | 23.97698 | 2243 ft | 175 kts | 2° |
| 2026-04-27 10:01 | 56.97267 | 23.97896 | 2657 ft | 196 kts | 2° |
| 2026-04-27 10:01 | 56.98709 | 23.98121 | 3126 ft | 220 kts | 2° |
| 2026-04-27 10:02 | 57.00287 | 23.98376 | 3895 ft | 233 kts | 3° |
| 2026-04-27 10:02 | 57.01916 | 23.98648 | 4897 ft | 238 kts | 3° |
| 2026-04-27 10:02 | 57.03582 | 23.98929 | 5715 ft | 244 kts | 4° |
| 2026-04-27 10:02 | 57.05275 | 23.99020 | 5960 ft | 243 kts | 350° |
| 2026-04-27 10:03 | 57.06811 | 23.97817 | 6009 ft | 243 kts | 323° |
| 2026-04-27 10:03 | 57.07843 | 23.95388 | 6014 ft | 249 kts | 300° |
| 2026-04-27 10:03 | 57.08587 | 23.92496 | 6012 ft | 250 kts | 299° |
| 2026-04-27 10:03 | 57.09332 | 23.89589 | 6012 ft | 250 kts | 299° |
| 2026-04-27 10:04 | 57.10073 | 23.86703 | 6013 ft | 250 kts | 299° |
| 2026-04-27 10:04 | 57.10784 | 23.83776 | 6013 ft | 252 kts | 292° |
| 2026-04-27 10:04 | 57.11040 | 23.80557 | 6016 ft | 259 kts | 272° |
| 2026-04-27 10:04 | 57.10691 | 23.77269 | 6012 ft | 265 kts | 259° |
| 2026-04-27 10:05 | 57.10189 | 23.74047 | 6020 ft | 265 kts | 259° |
| 2026-04-27 10:05 | 57.09675 | 23.70749 | 6016 ft | 265 kts | 259° |
| 2026-04-27 10:05 | 57.09105 | 23.67565 | 6017 ft | 268 kts | 250° |
| 2026-04-27 10:05 | 57.08080 | 23.64603 | 6071 ft | 278 kts | 232° |
| 2026-04-27 10:06 | 57.06602 | 23.62216 | 6926 ft | 284 kts | 222° |
| 2026-04-27 10:06 | 57.05050 | 23.59958 | 7908 ft | 286 kts | 223° |
| 2026-04-27 10:06 | 57.03512 | 23.57688 | 8821 ft | 289 kts | 223° |
| 2026-04-27 10:06 | 57.01935 | 23.55354 | 9728 ft | 293 kts | 223° |
| 2026-04-27 10:07 | 57.00331 | 23.52979 | 10424 ft | 304 kts | 223° |
| 2026-04-27 10:07 | 56.98621 | 23.50442 | 10722 ft | 328 kts | 223° |
| 2026-04-27 10:07 | 56.96776 | 23.47768 | 11077 ft | 345 kts | 222° |
| 2026-04-27 10:07 | 56.94851 | 23.45054 | 11795 ft | 351 kts | 221° |
| 2026-04-27 10:08 | 56.92887 | 23.42319 | 12552 ft | 356 kts | 221° |
| 2026-04-27 10:08 | 56.90900 | 23.39571 | 13318 ft | 360 kts | 222° |
| 2026-04-27 10:08 | 56.88890 | 23.36795 | 14039 ft | 364 kts | 222° |
| 2026-04-27 10:08 | 56.86859 | 23.33985 | 14669 ft | 368 kts | 223° |
| 2026-04-27 10:09 | 56.84805 | 23.31134 | 15294 ft | 373 kts | 223° |
| 2026-04-27 10:09 | 56.82731 | 23.28246 | 15892 ft | 377 kts | 224° |
| 2026-04-27 10:09 | 56.80798 | 23.25045 | 16486 ft | 373 kts | 236° |
| 2026-04-27 10:09 | 56.79259 | 23.21277 | 17103 ft | 367 kts | 248° |
| 2026-04-27 10:10 | 56.78156 | 23.17127 | 17747 ft | 361 kts | 258° |
| 2026-04-27 10:10 | 56.77499 | 23.12758 | 18417 ft | 354 kts | 269° |
| 2026-04-27 10:10 | 56.77112 | 23.08323 | 19030 ft | 356 kts | 270° |
| 2026-04-27 10:10 | 56.76725 | 23.03854 | 19663 ft | 358 kts | 270° |
| 2026-04-27 10:11 | 56.76334 | 22.99356 | 20307 ft | 361 kts | 271° |
| 2026-04-27 10:11 | 56.75936 | 22.94824 | 20935 ft | 363 kts | 271° |
| 2026-04-27 10:11 | 56.75530 | 22.90261 | 21545 ft | 366 kts | 271° |
| 2026-04-27 10:11 | 56.75116 | 22.85669 | 22148 ft | 369 kts | 271° |
| 2026-04-27 10:12 | 56.74703 | 22.81042 | 22706 ft | 371 kts | 272° |
| 2026-04-27 10:12 | 56.74322 | 22.76386 | 23266 ft | 373 kts | 272° |
| 2026-04-27 10:12 | 56.73958 | 22.71674 | 23797 ft | 375 kts | 273° |
| 2026-04-27 10:12 | 56.73603 | 22.66965 | 24243 ft | 377 kts | 273° |
| 2026-04-27 10:13 | 56.73247 | 22.62254 | 24686 ft | 380 kts | 273° |
| 2026-04-27 10:13 | 56.72878 | 22.57462 | 25130 ft | 382 kts | 273° |
| 2026-04-27 10:13 | 56.72501 | 22.52671 | 25555 ft | 384 kts | 272° |